createdAt,value
2022-10-10T00:09:06.697Z,3.65
2022-10-10T00:19:09.055Z,3.17
2022-10-10T00:29:11.438Z,3.60
2022-10-10T00:39:13.660Z,4.10
2022-10-10T00:49:19.872Z,4.22
2022-10-10T00:59:23.619Z,5.90
2022-10-10T01:09:27.538Z,4.83
2022-10-10T01:20:09.572Z,4.60
2022-10-10T01:30:18.014Z,4.35
2022-10-10T01:40:34.149Z,3.87
2022-10-10T01:51:05.396Z,4.18
2022-10-10T02:01:21.765Z,4.60
2022-10-10T02:11:27.214Z,4.70
2022-10-10T02:21:30.501Z,3.92
2022-10-10T02:31:48.419Z,3.97
2022-10-10T02:41:53.050Z,4.20
2022-10-10T02:51:55.380Z,6.55
2022-10-10T03:01:57.608Z,6.05
2022-10-10T03:11:59.847Z,5.37
2022-10-10T03:22:02.158Z,5.05
2022-10-10T03:32:06.908Z,5.57
2022-10-10T03:42:12.510Z,5.75
2022-10-10T03:52:14.736Z,6.10
2022-10-10T04:02:17.089Z,5.53
2022-10-10T04:12:19.491Z,5.28
2022-10-10T04:22:21.893Z,5.00
2022-10-10T04:32:24.310Z,5.95
2022-10-10T04:42:26.669Z,5.70
2022-10-10T04:52:29.048Z,5.37
2022-10-10T05:02:31.386Z,5.25
2022-10-10T05:12:34.230Z,4.80
2022-10-10T05:22:36.739Z,5.80
2022-10-10T05:32:39.383Z,6.22
2022-10-10T05:42:41.731Z,5.37
2022-10-10T05:52:44.570Z,5.35
2022-10-10T06:02:47.117Z,5.25
2022-10-10T06:12:49.867Z,5.53
2022-10-10T06:22:53.243Z,4.82
2022-10-10T06:32:57.252Z,5.10
2022-10-10T06:43:00.346Z,5.23
2022-10-10T06:53:03.744Z,5.47
2022-10-10T07:03:06.347Z,5.12
2022-10-10T07:13:08.953Z,4.68
2022-10-10T07:23:11.625Z,4.80
2022-10-10T07:33:15.553Z,4.43
2022-10-10T07:43:18.238Z,5.10
2022-10-10T07:53:20.767Z,4.43
2022-10-10T08:03:23.378Z,4.30
2022-10-10T08:13:28.143Z,3.40
2022-10-10T08:23:35.559Z,3.62
2022-10-10T08:33:39.506Z,5.35
2022-10-10T08:43:51.609Z,4.97
2022-10-10T08:53:58.140Z,6.32
2022-10-10T09:04:04.627Z,5.55
2022-10-10T09:14:31.789Z,6.18
2022-10-10T09:25:09.193Z,6.43
2022-10-10T09:35:28.716Z,5.35
2022-10-10T09:45:39.734Z,4.95
2022-10-10T09:55:44.516Z,5.78
2022-10-10T10:06:00.587Z,6.20
2022-10-10T10:16:14.259Z,6.80
2022-10-10T10:26:38.591Z,5.00
2022-10-10T10:36:59.223Z,5.30
2022-10-10T10:47:15.470Z,3.95
2022-10-10T10:58:00.005Z,3.45
2022-10-10T11:08:25.927Z,3.50
2022-10-10T11:18:35.068Z,2.97
2022-10-10T11:28:49.589Z,2.45
2022-10-10T11:39:15.992Z,1.65
2022-10-10T11:49:28.963Z,1.67
2022-10-10T11:59:42.087Z,2.00
2022-10-10T12:09:53.922Z,1.83
2022-10-10T12:20:09.472Z,2.12
2022-10-10T12:30:21.183Z,2.08
2022-10-10T12:40:26.090Z,1.90
2022-10-10T12:50:34.837Z,1.95
2022-10-10T13:00:47.388Z,1.90
2022-10-10T13:11:05.299Z,1.87
2022-10-10T13:21:15.871Z,2.28
2022-10-10T13:31:20.656Z,1.95
2022-10-10T13:41:26.647Z,1.80
2022-10-10T13:51:46.888Z,1.58
2022-10-10T14:02:01.003Z,1.77
2022-10-10T14:12:07.790Z,1.95
2022-10-10T14:22:12.652Z,1.92
2022-10-10T14:32:17.811Z,2.10
2022-10-10T14:42:22.886Z,2.10
2022-10-10T14:52:25.761Z,1.42
2022-10-10T15:02:30.373Z,1.45
2022-10-10T15:12:36.021Z,1.80
2022-10-10T15:22:39.338Z,2.00
2022-10-10T15:42:45.815Z,1.58
2022-10-10T15:52:49.413Z,2.00
2022-10-10T16:12:55.898Z,1.90
2022-10-10T16:33:01.134Z,2.22
2022-10-10T16:43:05.242Z,1.70
2022-10-10T17:03:11.354Z,2.30
2022-10-10T17:13:14.010Z,1.93
2022-10-10T17:23:17.445Z,1.98
2022-10-10T17:33:20.742Z,1.93
2022-10-10T17:43:24.226Z,2.10
2022-10-10T17:53:27.563Z,2.00
2022-10-10T18:03:30.547Z,2.03
2022-10-10T18:13:33.473Z,2.08
2022-10-10T18:23:37.507Z,2.12
2022-10-10T18:33:41.707Z,2.28
2022-10-10T18:43:45.587Z,2.30
2022-10-10T18:53:48.682Z,2.00
2022-10-10T19:03:51.421Z,2.00
2022-10-10T19:13:54.347Z,2.37
2022-10-10T19:23:58.539Z,2.20
2022-10-10T19:34:01.833Z,2.25
2022-10-10T19:44:06.066Z,2.70
2022-10-10T20:04:12.670Z,2.03
2022-10-10T20:14:15.386Z,2.22
2022-10-10T20:24:18.483Z,1.90
2022-10-10T20:34:21.143Z,1.98
2022-10-10T20:44:23.645Z,1.48
2022-10-10T20:54:26.240Z,1.30
2022-10-10T21:04:28.745Z,1.50
2022-10-10T21:14:31.164Z,1.37
2022-10-10T21:24:33.805Z,1.48
2022-10-10T21:34:36.586Z,1.42
2022-10-10T21:44:39.425Z,1.67
2022-10-10T21:54:41.787Z,1.42
2022-10-10T22:04:44.326Z,1.45
2022-10-10T22:14:46.805Z,1.17
2022-10-10T22:24:49.116Z,1.05
2022-10-10T22:34:51.546Z,1.30
2022-10-10T22:44:53.905Z,1.00
2022-10-10T22:54:56.232Z,1.05
2022-10-10T23:05:00.041Z,1.10
2022-10-10T23:15:02.333Z,1.20
2022-10-10T23:25:04.992Z,1.05
2022-10-10T23:35:07.740Z,1.23
2022-10-10T23:45:10.495Z,1.00
2022-10-10T23:55:12.997Z,1.02
